createdAt,value
2022-09-30T00:01:43.417Z,100039.16
2022-09-30T00:04:15.692Z,100036.13
2022-09-30T00:06:43.991Z,100040.59
2022-09-30T00:09:13.258Z,100037.72
2022-09-30T00:11:42.647Z,100039.41
2022-09-30T00:14:17.748Z,100041.81
2022-09-30T00:16:46.553Z,100042.38
2022-09-30T00:19:15.016Z,100046.09
2022-09-30T00:21:43.498Z,100050.22
2022-09-30T00:24:11.947Z,100047.25
2022-09-30T00:26:40.183Z,100049.16
2022-09-30T00:29:08.319Z,100051.38
2022-09-30T00:31:38.100Z,100051.25
2022-09-30T00:34:11.049Z,100046.06
2022-09-30T00:36:43.586Z,100051.41
2022-09-30T00:39:14.672Z,100050.78
2022-09-30T00:41:43.322Z,100053.97
2022-09-30T00:44:45.574Z,100054.31
2022-09-30T00:47:35.072Z,100049.16
2022-09-30T00:50:06.019Z,100065.31
2022-09-30T00:52:35.752Z,100064.88
2022-09-30T00:55:09.083Z,100063.25
2022-09-30T00:57:38.213Z,100065.16
2022-09-30T01:00:07.826Z,100066.31
2022-09-30T01:02:37.481Z,100076.44
2022-09-30T01:05:06.323Z,100073.72
2022-09-30T01:07:36.771Z,100070.91
2022-09-30T01:10:05.756Z,100075.69
2022-09-30T01:12:34.208Z,100078.59
2022-09-30T01:15:03.324Z,100070.94
2022-09-30T01:17:45.596Z,100070.06
2022-09-30T01:20:48.304Z,100068.13
2022-09-30T01:23:42.720Z,100076.78
2022-09-30T01:26:33.013Z,100085.00
2022-09-30T01:29:35.069Z,100073.84
2022-09-30T01:32:14.794Z,100076.19
2022-09-30T01:34:48.239Z,100072.78
2022-09-30T01:37:26.503Z,100065.94
2022-09-30T01:40:04.226Z,100069.47
2022-09-30T01:42:42.440Z,100069.03
2022-09-30T01:45:18.142Z,100080.22
2022-09-30T01:47:51.590Z,100069.91
2022-09-30T01:50:24.340Z,100056.22
2022-09-30T01:53:04.646Z,100064.19
2022-09-30T01:55:39.506Z,100060.44
2022-09-30T01:58:13.671Z,100079.84
2022-09-30T02:00:49.191Z,100074.38
2022-09-30T02:03:23.219Z,100083.75
2022-09-30T02:05:57.736Z,100081.56
2022-09-30T02:08:31.533Z,100079.84
2022-09-30T02:11:03.616Z,100082.13
2022-09-30T02:13:38.180Z,100080.59
2022-09-30T02:16:13.894Z,100079.53
2022-09-30T02:18:47.502Z,100081.41
2022-09-30T02:21:18.782Z,100083.56
2022-09-30T02:23:51.311Z,100089.38
2022-09-30T02:26:23.033Z,100085.78
2022-09-30T02:28:55.992Z,100087.72
2022-09-30T02:31:27.726Z,100085.25
2022-09-30T02:34:03.286Z,100088.09
2022-09-30T02:36:35.850Z,100091.84
2022-09-30T02:39:06.989Z,100100.19
2022-09-30T02:41:40.793Z,100103.78
2022-09-30T02:44:08.985Z,100096.91
2022-09-30T02:46:46.255Z,100105.56
2022-09-30T02:49:22.795Z,100101.97
2022-09-30T02:52:08.532Z,100106.78
2022-09-30T02:54:44.089Z,100107.94
2022-09-30T02:57:19.377Z,100112.25
2022-09-30T02:59:48.775Z,100110.22
2022-09-30T03:02:16.771Z,100117.75
2022-09-30T03:04:47.104Z,100119.66
2022-09-30T03:07:15.742Z,100124.00
2022-09-30T03:09:43.809Z,100118.22
2022-09-30T03:12:27.517Z,100123.53
2022-09-30T03:15:16.125Z,100124.09
2022-09-30T03:18:02.468Z,100127.97
2022-09-30T03:20:46.994Z,100133.34
2022-09-30T03:23:29.812Z,100132.66
2022-09-30T03:26:07.685Z,100137.28
2022-09-30T03:28:41.395Z,100126.56
2022-09-30T03:31:16.257Z,100133.88
2022-09-30T03:33:53.491Z,100134.28
2022-09-30T03:36:29.209Z,100126.25
2022-09-30T03:39:04.606Z,100137.66
2022-09-30T03:41:39.741Z,100140.75
2022-09-30T03:44:13.285Z,100134.94
2022-09-30T03:46:45.129Z,100146.91
2022-09-30T03:49:16.825Z,100139.19
2022-09-30T03:51:46.115Z,100148.25
2022-09-30T03:54:15.161Z,100150.63
2022-09-30T03:56:43.290Z,100145.88
2022-09-30T03:59:13.535Z,100150.91
2022-09-30T04:01:41.475Z,100151.59
2022-09-30T04:04:09.975Z,100167.06
2022-09-30T04:06:37.798Z,100163.13
2022-09-30T04:09:07.140Z,100166.06
2022-09-30T04:11:35.106Z,100159.25
2022-09-30T04:14:03.220Z,100155.00
2022-09-30T04:16:31.215Z,100159.38
2022-09-30T04:18:59.197Z,100170.00
2022-09-30T04:21:28.710Z,100157.56
2022-09-30T04:23:57.143Z,100154.66
2022-09-30T04:26:26.484Z,100170.28
2022-09-30T04:28:54.908Z,100170.34
2022-09-30T04:31:22.905Z,100177.59
2022-09-30T04:33:51.397Z,100185.69
2022-09-30T04:36:19.743Z,100180.47
2022-09-30T04:38:47.629Z,100180.47
2022-09-30T04:41:17.953Z,100183.19
2022-09-30T04:43:48.748Z,100188.44
2022-09-30T04:46:17.565Z,100185.69
2022-09-30T04:48:46.390Z,100186.59
2022-09-30T04:51:14.351Z,100190.06
2022-09-30T04:53:42.502Z,100193.84
2022-09-30T04:56:11.076Z,100187.34
2022-09-30T04:58:39.324Z,100183.47
2022-09-30T05:01:10.790Z,100197.91
2022-09-30T05:03:39.347Z,100193.78
2022-09-30T05:06:08.794Z,100198.94
2022-09-30T05:08:38.855Z,100209.72
2022-09-30T05:11:11.678Z,100214.38
2022-09-30T05:13:41.755Z,100215.16
2022-09-30T05:16:11.582Z,100213.56
2022-09-30T05:18:41.101Z,100214.38
2022-09-30T05:21:09.225Z,100222.34
2022-09-30T05:23:37.181Z,100222.44
2022-09-30T05:26:11.075Z,100222.59
2022-09-30T05:28:40.033Z,100222.44
2022-09-30T05:31:08.029Z,100227.41
2022-09-30T05:33:37.755Z,100233.97
2022-09-30T05:36:07.728Z,100231.38
2022-09-30T05:38:36.643Z,100237.81
2022-09-30T05:41:11.185Z,100220.28
2022-09-30T05:43:39.629Z,100243.28
2022-09-30T05:46:08.237Z,100246.25
2022-09-30T05:48:37.706Z,100241.94
2022-09-30T05:51:05.888Z,100234.03
2022-09-30T05:53:37.056Z,100250.69
2022-09-30T05:56:05.644Z,100242.78
2022-09-30T05:58:33.675Z,100261.03
2022-09-30T06:01:12.087Z,100259.28
2022-09-30T06:03:42.687Z,100266.22
2022-09-30T06:06:11.385Z,100272.22
2022-09-30T06:08:40.472Z,100269.13
2022-09-30T06:11:12.918Z,100268.94
2022-09-30T06:13:41.759Z,100269.72
2022-09-30T06:16:11.693Z,100276.53
2022-09-30T06:18:41.494Z,100286.16
2022-09-30T06:21:12.502Z,100288.41
2022-09-30T06:23:40.880Z,100249.97
2022-09-30T06:26:11.569Z,100289.25
2022-09-30T06:28:39.644Z,100295.91
2022-09-30T06:31:08.155Z,100294.66
2022-09-30T06:33:36.668Z,100300.91
2022-09-30T06:36:06.189Z,100300.00
2022-09-30T06:38:37.192Z,100295.84
2022-09-30T06:41:05.982Z,100300.78
2022-09-30T06:43:36.984Z,100295.75
2022-09-30T06:46:18.831Z,100299.91
2022-09-30T06:48:51.403Z,100304.81
2022-09-30T06:51:20.231Z,100309.56
2022-09-30T06:53:53.425Z,100308.41
2022-09-30T06:56:21.292Z,100313.84
2022-09-30T06:58:49.502Z,100308.88
2022-09-30T07:01:17.315Z,100312.28
2022-09-30T07:03:46.548Z,100312.34
2022-09-30T07:06:16.022Z,100316.53
2022-09-30T07:08:43.788Z,100317.41
2022-09-30T07:11:15.643Z,100309.50
2022-09-30T07:13:45.200Z,100316.22
2022-09-30T07:16:14.062Z,100316.53
2022-09-30T07:18:43.537Z,100318.44
2022-09-30T07:21:13.485Z,100323.91
2022-09-30T07:23:45.600Z,100320.28
2022-09-30T07:26:15.489Z,100321.75
2022-09-30T07:28:43.642Z,100317.97
2022-09-30T07:31:33.722Z,100314.22
2022-09-30T07:34:03.382Z,100315.91
2022-09-30T07:36:33.455Z,100322.38
2022-09-30T07:39:06.825Z,100316.41
2022-09-30T07:41:38.911Z,100316.97
2022-09-30T07:44:10.215Z,100314.47
2022-09-30T07:46:40.340Z,100316.69
2022-09-30T07:49:12.932Z,100314.53
2022-09-30T07:51:43.994Z,100305.53
2022-09-30T07:54:15.223Z,100317.88
2022-09-30T07:57:08.578Z,100318.78
2022-09-30T07:59:35.591Z,100319.44
2022-09-30T08:02:04.040Z,100327.00
2022-09-30T08:04:32.210Z,100329.91
2022-09-30T08:07:02.256Z,100322.56
2022-09-30T08:09:31.563Z,100327.81
2022-09-30T08:12:03.340Z,100326.53
2022-09-30T08:14:31.287Z,100333.59
2022-09-30T08:17:00.526Z,100340.91
2022-09-30T08:19:30.838Z,100336.84
2022-09-30T08:21:59.225Z,100325.16
2022-09-30T08:24:27.698Z,100325.13
2022-09-30T08:26:56.812Z,100329.94
2022-09-30T08:32:14.080Z,100337.50
2022-09-30T08:34:42.028Z,100324.47
2022-09-30T08:37:10.219Z,100334.69
2022-09-30T08:39:38.452Z,100336.72
2022-09-30T08:42:36.191Z,100344.81
2022-09-30T08:45:17.849Z,100346.66
2022-09-30T08:47:52.522Z,100349.34
2022-09-30T08:50:29.919Z,100347.34
2022-09-30T08:53:00.911Z,100345.94
2022-09-30T08:55:36.631Z,100347.44
2022-09-30T08:58:07.958Z,100348.41
2022-09-30T09:00:37.539Z,100352.63
2022-09-30T09:03:05.445Z,100346.47
2022-09-30T09:05:49.995Z,100353.28
2022-09-30T09:08:30.999Z,100351.16
2022-09-30T09:11:09.020Z,100344.69
2022-09-30T09:13:46.256Z,100350.09
2022-09-30T09:16:23.621Z,100360.00
2022-09-30T09:18:59.199Z,100359.50
2022-09-30T09:21:40.887Z,100360.97
2022-09-30T09:24:49.341Z,100340.78
2022-09-30T09:27:21.081Z,100355.31
2022-09-30T09:30:01.520Z,100359.00
2022-09-30T09:32:30.931Z,100353.41
2022-09-30T09:35:02.669Z,100352.22
2022-09-30T09:38:23.209Z,100357.34
2022-09-30T09:41:18.692Z,100360.22
2022-09-30T09:43:58.342Z,100360.50
2022-09-30T09:46:31.823Z,100357.28
2022-09-30T09:49:32.890Z,100354.44
2022-09-30T09:52:17.426Z,100355.50
2022-09-30T09:54:47.702Z,100356.47
2022-09-30T09:57:18.294Z,100352.78
2022-09-30T09:59:58.267Z,100339.72
2022-09-30T10:02:28.629Z,100352.78
2022-09-30T10:05:03.035Z,100345.00
2022-09-30T10:07:33.147Z,100349.97
2022-09-30T10:10:13.757Z,100349.63
2022-09-30T10:12:42.740Z,100359.00
2022-09-30T10:15:21.803Z,100352.19
2022-09-30T10:17:58.396Z,100344.84
2022-09-30T10:20:32.741Z,100344.53
2022-09-30T10:23:10.339Z,100343.59
2022-09-30T10:25:38.361Z,100349.59
2022-09-30T10:28:23.831Z,100356.03
2022-09-30T10:30:56.271Z,100347.75
2022-09-30T10:33:30.330Z,100340.34
2022-09-30T10:36:13.493Z,100342.66
2022-09-30T10:38:52.577Z,100358.38
2022-09-30T10:41:25.379Z,100351.09
2022-09-30T10:43:55.570Z,100348.22
2022-09-30T10:46:27.091Z,100344.09
2022-09-30T10:48:57.695Z,100344.84
2022-09-30T10:51:30.264Z,100344.84
2022-09-30T10:53:58.523Z,100338.72
2022-09-30T10:56:42.546Z,100345.75
2022-09-30T10:59:22.212Z,100355.22
2022-09-30T11:01:57.519Z,100338.53
2022-09-30T11:04:33.532Z,100354.66
2022-09-30T11:07:18.121Z,100349.94
2022-09-30T11:09:55.122Z,100355.59
2022-09-30T11:12:30.307Z,100354.00
2022-09-30T11:15:05.845Z,100352.03
2022-09-30T11:17:42.916Z,100350.88
2022-09-30T11:20:20.016Z,100349.94
2022-09-30T11:22:55.489Z,100354.88
2022-09-30T11:25:29.198Z,100361.06
2022-09-30T11:28:15.836Z,100359.63
2022-09-30T11:30:52.836Z,100358.50
2022-09-30T11:33:35.794Z,100351.47
2022-09-30T11:36:12.185Z,100352.34
2022-09-30T11:38:58.698Z,100345.25
2022-09-30T11:41:32.031Z,100340.47
2022-09-30T11:44:15.895Z,100342.84
2022-09-30T11:47:16.825Z,100334.47
2022-09-30T11:50:06.739Z,100336.09
2022-09-30T11:52:47.638Z,100332.06
2022-09-30T11:55:37.483Z,100333.09
2022-09-30T11:58:36.263Z,100333.00
2022-09-30T12:01:02.256Z,100331.19
2022-09-30T12:03:36.874Z,100329.91
2022-09-30T12:06:13.214Z,100330.50
2022-09-30T12:08:48.134Z,100325.22
2022-09-30T12:11:21.715Z,100318.88
2022-09-30T12:13:53.921Z,100319.69
2022-09-30T12:16:25.700Z,100327.78
2022-09-30T12:18:59.546Z,100331.44
2022-09-30T12:21:34.000Z,100329.78
2022-09-30T12:24:07.356Z,100329.22
2022-09-30T12:26:37.063Z,100332.22
2022-09-30T12:29:30.651Z,100334.38
2022-09-30T12:32:13.085Z,100333.53
2022-09-30T12:34:53.466Z,100336.50
2022-09-30T12:37:35.949Z,100330.94
2022-09-30T12:40:25.516Z,100331.09
2022-09-30T12:43:26.092Z,100335.13
2022-09-30T12:46:20.057Z,100330.66
2022-09-30T12:48:52.780Z,100319.97
2022-09-30T12:51:30.580Z,100322.06
2022-09-30T12:54:05.139Z,100320.25
2022-09-30T12:56:37.308Z,100326.59
2022-09-30T12:59:09.904Z,100323.16
2022-09-30T13:01:39.666Z,100317.59
2022-09-30T13:04:30.654Z,100318.31
2022-09-30T13:07:14.937Z,100314.66
2022-09-30T13:10:01.648Z,100318.00
2022-09-30T13:12:41.784Z,100314.84
2022-09-30T13:15:45.033Z,100310.06
2022-09-30T13:18:31.677Z,100312.97
2022-09-30T13:21:19.957Z,100312.97
2022-09-30T13:23:49.181Z,100308.91
2022-09-30T13:26:37.239Z,100306.53
2022-09-30T13:29:48.409Z,100303.50
2022-09-30T13:32:33.891Z,100304.19
2022-09-30T13:35:02.132Z,100303.25
2022-09-30T13:37:40.885Z,100295.72
2022-09-30T13:40:43.595Z,100296.78
2022-09-30T13:43:20.790Z,100294.66
2022-09-30T13:45:50.923Z,100295.97
2022-09-30T13:48:24.679Z,100291.53
2022-09-30T13:50:54.975Z,100288.59
2022-09-30T13:53:29.047Z,100289.72
2022-09-30T13:55:59.551Z,100287.59
2022-09-30T13:58:56.256Z,100285.78
2022-09-30T14:01:42.258Z,100289.84
2022-09-30T14:04:37.506Z,100294.03
2022-09-30T14:07:14.148Z,100284.97
2022-09-30T14:09:54.688Z,100289.19
2022-09-30T14:12:35.672Z,100284.56
2022-09-30T14:15:21.088Z,100278.31
2022-09-30T14:18:01.334Z,100282.16
2022-09-30T14:20:43.742Z,100281.44
2022-09-30T14:23:16.777Z,100274.19
2022-09-30T14:25:58.233Z,100281.69
2022-09-30T14:28:34.631Z,100277.34
2022-09-30T14:31:09.305Z,100269.59
2022-09-30T14:33:39.572Z,100273.09
2022-09-30T14:36:15.368Z,100271.63
2022-09-30T14:38:47.134Z,100268.69
2022-09-30T14:41:20.722Z,100261.84
2022-09-30T14:43:52.945Z,100271.00
2022-09-30T14:46:30.298Z,100262.44
2022-09-30T14:49:04.592Z,100263.50
2022-09-30T14:51:43.576Z,100264.00
2022-09-30T14:54:20.819Z,100261.34
2022-09-30T14:56:49.621Z,100254.78
2022-09-30T14:59:22.033Z,100258.69
2022-09-30T15:01:55.410Z,100259.81
2022-09-30T15:04:26.767Z,100258.44
2022-09-30T15:06:57.008Z,100259.06
2022-09-30T15:09:29.491Z,100258.91
2022-09-30T15:11:58.239Z,100263.09
2022-09-30T15:14:26.478Z,100255.06
2022-09-30T15:16:56.288Z,100250.53
2022-09-30T15:19:26.294Z,100250.31
2022-09-30T15:22:01.043Z,100253.84
2022-09-30T15:24:31.347Z,100256.84
2022-09-30T15:27:01.177Z,100236.59
2022-09-30T15:29:29.204Z,100237.69
2022-09-30T15:32:02.187Z,100251.44
2022-09-30T15:34:30.970Z,100253.69
2022-09-30T15:37:06.483Z,100257.66
2022-09-30T15:39:55.742Z,100252.28
2022-09-30T15:42:35.240Z,100248.03
2022-09-30T15:45:03.903Z,100248.88
2022-09-30T15:47:32.030Z,100253.81
2022-09-30T15:50:00.440Z,100245.88
2022-09-30T15:52:36.429Z,100243.94
2022-09-30T15:55:36.471Z,100241.47
2022-09-30T15:58:05.139Z,100247.59
2022-09-30T16:00:37.694Z,100246.94
2022-09-30T16:03:36.409Z,100243.63
2022-09-30T16:06:13.528Z,100249.47
2022-09-30T16:08:47.003Z,100245.50
2022-09-30T16:11:26.313Z,100247.09
2022-09-30T16:13:55.267Z,100232.38
2022-09-30T16:16:25.719Z,100220.31
2022-09-30T16:18:55.453Z,100250.53
2022-09-30T16:21:50.789Z,100247.13
2022-09-30T16:24:51.118Z,100256.97
2022-09-30T16:27:30.160Z,100259.19
2022-09-30T16:29:59.340Z,100253.38
2022-09-30T16:32:28.860Z,100244.78
2022-09-30T16:34:58.242Z,100260.47
2022-09-30T16:37:26.215Z,100253.41
2022-09-30T16:39:56.605Z,100250.09
2022-09-30T16:42:25.101Z,100246.53
2022-09-30T16:44:53.050Z,100253.28
2022-09-30T16:47:21.064Z,100248.38
2022-09-30T16:49:51.072Z,100248.88
2022-09-30T16:52:19.028Z,100215.00
2022-09-30T16:54:46.938Z,100246.09
2022-09-30T16:57:16.932Z,100239.03
2022-09-30T16:59:45.206Z,100240.88
2022-09-30T17:02:15.718Z,100238.66
2022-09-30T17:04:45.463Z,100236.72
2022-09-30T17:07:16.388Z,100246.00
2022-09-30T17:09:44.703Z,100244.28
2022-09-30T17:12:13.584Z,100247.13
2022-09-30T17:14:43.862Z,100245.06
2022-09-30T17:17:13.661Z,100247.16
2022-09-30T17:19:42.303Z,100248.13
2022-09-30T17:22:10.196Z,100246.16
2022-09-30T17:24:38.266Z,100243.81
2022-09-30T17:27:07.886Z,100247.34
2022-09-30T17:29:41.851Z,100247.06
2022-09-30T17:32:11.649Z,100251.97
2022-09-30T17:34:41.213Z,100258.53
2022-09-30T17:37:09.181Z,100251.22
2022-09-30T17:39:37.165Z,100264.16
2022-09-30T17:42:22.599Z,100268.88
2022-09-30T17:44:50.310Z,100264.38
2022-09-30T17:47:20.111Z,100268.53
2022-09-30T17:49:48.035Z,100260.72
2022-09-30T17:52:16.786Z,100262.75
2022-09-30T17:54:47.561Z,100264.28
2022-09-30T17:57:19.437Z,100266.63
2022-09-30T17:59:47.367Z,100264.81
2022-09-30T18:02:17.634Z,100262.34
2022-09-30T18:04:47.439Z,100267.84
2022-09-30T18:07:15.378Z,100270.75
2022-09-30T18:09:43.405Z,100261.94
2022-09-30T18:12:12.234Z,100272.47
2022-09-30T18:14:40.171Z,100266.25
2022-09-30T18:17:08.191Z,100268.94
2022-09-30T18:19:36.589Z,100268.19
2022-09-30T18:22:05.945Z,100273.50
2022-09-30T18:24:51.594Z,100270.81
2022-09-30T18:27:21.513Z,100268.56
2022-09-30T18:29:50.054Z,100264.50
2022-09-30T18:32:18.465Z,100267.03
2022-09-30T18:34:46.428Z,100262.00
2022-09-30T18:37:15.885Z,100267.28
2022-09-30T18:39:43.849Z,100270.13
2022-09-30T18:42:12.031Z,100258.53
2022-09-30T18:44:40.091Z,100261.75
2022-09-30T18:47:08.091Z,100266.75
2022-09-30T18:49:36.091Z,100253.00
2022-09-30T18:52:04.626Z,100254.19
2022-09-30T18:54:34.095Z,100247.28
2022-09-30T18:57:02.417Z,100249.25
2022-09-30T18:59:30.421Z,100254.25
2022-09-30T19:02:00.299Z,100247.00
2022-09-30T19:04:28.483Z,100250.25
2022-09-30T19:06:56.441Z,100248.88
2022-09-30T19:09:26.515Z,100247.47
2022-09-30T19:11:55.820Z,100242.81
2022-09-30T19:14:24.796Z,100242.47
2022-09-30T19:16:53.117Z,100242.47
2022-09-30T19:19:22.796Z,100245.59
2022-09-30T19:21:51.038Z,100249.88
2022-09-30T19:24:19.817Z,100249.72
2022-09-30T19:26:49.012Z,100245.53
2022-09-30T19:29:18.405Z,100247.13
2022-09-30T19:31:46.676Z,100246.19
2022-09-30T19:34:27.011Z,100246.69
2022-09-30T19:36:59.838Z,100245.34
2022-09-30T19:39:41.089Z,100243.06
2022-09-30T19:42:12.739Z,100242.97
2022-09-30T19:44:43.205Z,100244.13
2022-09-30T19:47:11.575Z,100235.44
2022-09-30T19:49:39.546Z,100241.16
2022-09-30T19:52:16.950Z,100233.63
2022-09-30T19:54:47.030Z,100235.66
2022-09-30T19:57:14.901Z,100238.63
2022-09-30T19:59:45.058Z,100243.50
2022-09-30T20:02:13.102Z,100223.16
2022-09-30T20:04:42.237Z,100196.81
2022-09-30T20:07:10.214Z,100216.00
2022-09-30T20:09:38.241Z,100235.34
2022-09-30T20:12:07.735Z,100233.28
2022-09-30T20:14:53.216Z,100227.44
2022-09-30T20:17:22.421Z,100226.50
2022-09-30T20:20:10.467Z,100229.19
2022-09-30T20:22:38.452Z,100223.91
2022-09-30T20:25:06.990Z,100220.00
2022-09-30T20:27:34.969Z,100226.50
2022-09-30T20:30:03.114Z,100226.69
2022-09-30T20:32:32.427Z,100231.06
2022-09-30T20:35:00.352Z,100227.44
2022-09-30T20:37:29.353Z,100224.22
2022-09-30T20:39:57.679Z,100226.41
2022-09-30T20:42:32.708Z,100226.97
2022-09-30T20:45:02.782Z,100222.16
2022-09-30T20:47:32.324Z,100215.09
2022-09-30T20:50:00.273Z,100222.78
2022-09-30T20:52:29.758Z,100210.94
2022-09-30T20:55:00.335Z,100218.66
2022-09-30T20:57:30.024Z,100213.78
2022-09-30T20:59:59.135Z,100212.72
2022-09-30T21:02:27.653Z,100205.88
2022-09-30T21:04:58.306Z,100199.75
2022-09-30T21:07:26.519Z,100208.53
2022-09-30T21:09:54.456Z,100204.41
2022-09-30T21:12:22.547Z,100199.38
2022-09-30T21:14:50.450Z,100197.66
2022-09-30T21:17:18.297Z,100199.38
2022-09-30T21:19:46.267Z,100193.19
2022-09-30T21:22:17.148Z,100193.00
2022-09-30T21:24:45.080Z,100190.81
2022-09-30T21:27:13.346Z,100181.06
2022-09-30T21:29:41.234Z,100188.03
2022-09-30T21:32:09.230Z,100197.66
2022-09-30T21:34:37.214Z,100190.22
2022-09-30T21:37:05.195Z,100190.97
2022-09-30T21:39:34.552Z,100169.69
2022-09-30T21:42:02.420Z,100175.16
2022-09-30T21:44:30.325Z,100170.38
2022-09-30T21:46:58.281Z,100164.47
2022-09-30T21:49:26.182Z,100168.75
2022-09-30T21:51:54.396Z,100164.25
2022-09-30T21:54:23.351Z,100160.09
2022-09-30T21:56:53.458Z,100162.75
2022-09-30T21:59:21.393Z,100160.94
2022-09-30T22:01:49.356Z,100154.25
2022-09-30T22:04:19.437Z,100148.25
2022-09-30T22:06:47.754Z,100152.06
2022-09-30T22:09:16.131Z,100150.72
2022-09-30T22:11:44.243Z,100146.34
2022-09-30T22:14:13.602Z,100141.56
2022-09-30T22:16:41.718Z,100130.69
2022-09-30T22:19:10.132Z,100135.38
2022-09-30T22:21:38.835Z,100134.69
2022-09-30T22:24:09.068Z,100120.09
2022-09-30T22:26:37.853Z,100121.44
2022-09-30T22:29:07.973Z,100126.88
2022-09-30T22:31:38.291Z,100128.19
2022-09-30T22:34:25.904Z,100127.25
2022-09-30T22:37:11.689Z,100126.47
2022-09-30T22:39:39.656Z,100117.25
2022-09-30T22:42:07.592Z,100119.06
2022-09-30T22:44:37.193Z,100107.44
2022-09-30T22:47:10.107Z,100117.72
2022-09-30T22:49:38.071Z,100116.19
2022-09-30T22:52:06.648Z,100107.22
2022-09-30T22:54:36.268Z,100106.19
2022-09-30T22:57:09.047Z,100099.97
2022-09-30T22:59:37.376Z,100102.91
2022-09-30T23:02:06.955Z,100101.03
2022-09-30T23:04:36.111Z,100099.28
2022-09-30T23:07:07.539Z,100096.16
2022-09-30T23:09:35.596Z,100099.41
2022-09-30T23:12:03.559Z,100106.09
2022-09-30T23:14:31.439Z,100108.38
2022-09-30T23:16:59.394Z,100104.00
2022-09-30T23:19:28.659Z,100104.72
2022-09-30T23:21:56.791Z,100109.66
2022-09-30T23:24:24.711Z,100103.75
2022-09-30T23:26:52.808Z,100098.31
2022-09-30T23:29:20.812Z,100098.31
2022-09-30T23:31:48.962Z,100097.81
2022-09-30T23:34:17.659Z,100096.34
2022-09-30T23:36:46.939Z,100090.13
2022-09-30T23:39:18.415Z,100083.16
2022-09-30T23:41:46.717Z,100089.72
2022-09-30T23:44:17.781Z,100084.28
2022-09-30T23:47:05.861Z,100080.56
2022-09-30T23:49:35.855Z,100077.59
2022-09-30T23:52:10.448Z,100065.91
2022-09-30T23:54:40.630Z,100070.25
2022-09-30T23:57:09.584Z,100065.94
2022-09-30T23:59:37.731Z,100065.31
